sensor_id;sensor_type;location;lat;lon;timestamp;P1;durP1;ratioP1;P2;durP2;ratioP2
24407;SDS011;12542;50.924;4.516;2023-03-25T00:02:27;6.00;;;1.20;;
24407;SDS011;12542;50.924;4.516;2023-03-25T00:04:54;5.35;;;1.02;;
24407;SDS011;12542;50.924;4.516;2023-03-25T00:07:27;4.05;;;1.35;;
24407;SDS011;12542;50.924;4.516;2023-03-25T00:09:52;3.22;;;0.98;;
24407;SDS011;12542;50.924;4.516;2023-03-25T00:12:22;6.97;;;0.90;;
24407;SDS011;12542;50.924;4.516;2023-03-25T00:14:47;3.63;;;0.93;;
24407;SDS011;12542;50.924;4.516;2023-03-25T00:17:21;4.35;;;1.45;;
24407;SDS011;12542;50.924;4.516;2023-03-25T00:19:50;2.45;;;0.80;;
24407;SDS011;12542;50.924;4.516;2023-03-25T00:22:17;6.53;;;1.02;;
24407;SDS011;12542;50.924;4.516;2023-03-25T00:24:47;5.18;;;0.93;;
24407;SDS011;12542;50.924;4.516;2023-03-25T00:27:15;3.38;;;0.90;;
24407;SDS011;12542;50.924;4.516;2023-03-25T00:29:44;4.97;;;1.25;;
24407;SDS011;12542;50.924;4.516;2023-03-25T00:32:11;3.47;;;1.27;;
24407;SDS011;12542;50.924;4.516;2023-03-25T00:34:41;5.65;;;1.13;;
24407;SDS011;12542;50.924;4.516;2023-03-25T00:37:11;2.88;;;0.88;;
24407;SDS011;12542;50.924;4.516;2023-03-25T00:39:41;4.65;;;1.10;;
24407;SDS011;12542;50.924;4.516;2023-03-25T00:42:09;4.50;;;1.10;;
24407;SDS011;12542;50.924;4.516;2023-03-25T00:44:37;5.32;;;0.90;;
24407;SDS011;12542;50.924;4.516;2023-03-25T00:47:07;7.20;;;1.25;;
24407;SDS011;12542;50.924;4.516;2023-03-25T00:49:33;5.25;;;1.13;;
24407;SDS011;12542;50.924;4.516;2023-03-25T00:51:59;4.88;;;1.27;;
24407;SDS011;12542;50.924;4.516;2023-03-25T00:54:27;5.45;;;1.33;;
24407;SDS011;12542;50.924;4.516;2023-03-25T00:56:53;5.43;;;1.10;;
24407;SDS011;12542;50.924;4.516;2023-03-25T00:59:20;8.40;;;1.48;;
24407;SDS011;12542;50.924;4.516;2023-03-25T01:01:48;6.32;;;1.13;;
24407;SDS011;12542;50.924;4.516;2023-03-25T01:04:17;3.38;;;1.10;;
24407;SDS011;12542;50.924;4.516;2023-03-25T01:06:45;7.68;;;1.77;;
24407;SDS011;12542;50.924;4.516;2023-03-25T01:09:17;5.72;;;1.25;;
24407;SDS011;12542;50.924;4.516;2023-03-25T01:12:02;5.72;;;0.85;;
24407;SDS011;12542;50.924;4.516;2023-03-25T01:14:27;7.20;;;1.08;;
24407;SDS011;12542;50.924;4.516;2023-03-25T01:16:53;7.70;;;1.90;;
24407;SDS011;12542;50.924;4.516;2023-03-25T01:19:19;8.90;;;1.25;;
24407;SDS011;12542;50.924;4.516;2023-03-25T01:21:47;10.38;;;1.30;;
24407;SDS011;12542;50.924;4.516;2023-03-25T01:24:17;5.38;;;1.48;;
24407;SDS011;12542;50.924;4.516;2023-03-25T01:26:45;8.73;;;1.35;;
24407;SDS011;12542;50.924;4.516;2023-03-25T01:29:14;7.75;;;1.38;;
24407;SDS011;12542;50.924;4.516;2023-03-25T01:38:10;6.32;;;1.48;;
24407;SDS011;12542;50.924;4.516;2023-03-25T01:40:37;7.60;;;1.60;;
24407;SDS011;12542;50.924;4.516;2023-03-25T01:45:41;8.10;;;1.25;;
24407;SDS011;12542;50.924;4.516;2023-03-25T01:48:22;6.60;;;1.20;;
24407;SDS011;12542;50.924;4.516;2023-03-25T01:50:54;4.72;;;1.23;;
24407;SDS011;12542;50.924;4.516;2023-03-25T01:53:25;6.80;;;1.63;;
24407;SDS011;12542;50.924;4.516;2023-03-25T01:55:52;6.18;;;1.30;;
24407;SDS011;12542;50.924;4.516;2023-03-25T01:58:18;6.55;;;1.30;;
24407;SDS011;12542;50.924;4.516;2023-03-25T02:00:48;7.03;;;1.50;;
24407;SDS011;12542;50.924;4.516;2023-03-25T02:03:16;4.78;;;1.27;;
24407;SDS011;12542;50.924;4.516;2023-03-25T02:05:49;8.43;;;1.25;;
24407;SDS011;12542;50.924;4.516;2023-03-25T02:08:17;5.07;;;1.00;;
24407;SDS011;12542;50.924;4.516;2023-03-25T02:10:45;5.28;;;1.50;;
24407;SDS011;12542;50.924;4.516;2023-03-25T02:13:11;5.53;;;1.17;;
24407;SDS011;12542;50.924;4.516;2023-03-25T02:21:06;5.75;;;1.38;;
24407;SDS011;12542;50.924;4.516;2023-03-25T02:35:12;9.35;;;1.63;;
24407;SDS011;12542;50.924;4.516;2023-03-25T02:43:12;7.07;;;1.10;;
24407;SDS011;12542;50.924;4.516;2023-03-25T02:45:45;3.45;;;1.25;;
24407;SDS011;12542;50.924;4.516;2023-03-25T02:48:22;7.53;;;1.13;;
24407;SDS011;12542;50.924;4.516;2023-03-25T02:50:57;7.35;;;1.33;;
24407;SDS011;12542;50.924;4.516;2023-03-25T02:53:29;9.35;;;1.40;;
24407;SDS011;12542;50.924;4.516;2023-03-25T02:56:01;9.75;;;1.38;;
24407;SDS011;12542;50.924;4.516;2023-03-25T02:58:30;4.25;;;0.80;;
24407;SDS011;12542;50.924;4.516;2023-03-25T03:00:58;6.38;;;1.35;;
24407;SDS011;12542;50.924;4.516;2023-03-25T03:03:24;6.65;;;1.75;;
24407;SDS011;12542;50.924;4.516;2023-03-25T03:05:51;9.50;;;2.05;;
24407;SDS011;12542;50.924;4.516;2023-03-25T03:16:50;10.25;;;1.33;;
24407;SDS011;12542;50.924;4.516;2023-03-25T03:24:26;9.95;;;1.40;;
24407;SDS011;12542;50.924;4.516;2023-03-25T03:30:05;12.20;;;2.83;;
24407;SDS011;12542;50.924;4.516;2023-03-25T03:32:42;9.20;;;1.35;;
24407;SDS011;12542;50.924;4.516;2023-03-25T03:35:45;9.63;;;1.40;;
24407;SDS011;12542;50.924;4.516;2023-03-25T03:38:21;6.85;;;1.05;;
24407;SDS011;12542;50.924;4.516;2023-03-25T03:40:55;7.13;;;1.40;;
24407;SDS011;12542;50.924;4.516;2023-03-25T03:43:25;10.35;;;1.23;;
24407;SDS011;12542;50.924;4.516;2023-03-25T03:46:07;6.85;;;1.60;;
24407;SDS011;12542;50.924;4.516;2023-03-25T03:48:56;8.52;;;1.42;;
24407;SDS011;12542;50.924;4.516;2023-03-25T03:51:25;9.70;;;1.38;;
24407;SDS011;12542;50.924;4.516;2023-03-25T03:54:39;7.28;;;0.95;;
24407;SDS011;12542;50.924;4.516;2023-03-25T04:02:05;11.77;;;2.10;;
24407;SDS011;12542;50.924;4.516;2023-03-25T04:04:38;18.58;;;2.35;;
24407;SDS011;12542;50.924;4.516;2023-03-25T04:09:41;11.15;;;1.88;;
24407;SDS011;12542;50.924;4.516;2023-03-25T04:12:28;8.82;;;1.90;;
24407;SDS011;12542;50.924;4.516;2023-03-25T04:15:03;9.13;;;1.58;;
24407;SDS011;12542;50.924;4.516;2023-03-25T04:17:30;11.05;;;1.55;;
24407;SDS011;12542;50.924;4.516;2023-03-25T04:19:59;8.70;;;1.33;;
24407;SDS011;12542;50.924;4.516;2023-03-25T04:22:33;10.80;;;1.50;;
24407;SDS011;12542;50.924;4.516;2023-03-25T04:25:03;8.52;;;1.10;;
24407;SDS011;12542;50.924;4.516;2023-03-25T04:27:30;5.20;;;1.02;;
24407;SDS011;12542;50.924;4.516;2023-03-25T04:29:56;7.82;;;1.65;;
24407;SDS011;12542;50.924;4.516;2023-03-25T04:32:22;9.75;;;1.83;;
24407;SDS011;12542;50.924;4.516;2023-03-25T04:34:51;9.75;;;1.75;;
24407;SDS011;12542;50.924;4.516;2023-03-25T04:37:21;13.20;;;2.08;;
24407;SDS011;12542;50.924;4.516;2023-03-25T04:39:51;9.63;;;2.45;;
24407;SDS011;12542;50.924;4.516;2023-03-25T04:42:24;9.93;;;1.65;;
24407;SDS011;12542;50.924;4.516;2023-03-25T04:44:57;6.88;;;1.48;;
24407;SDS011;12542;50.924;4.516;2023-03-25T04:47:23;6.35;;;1.20;;
24407;SDS011;12542;50.924;4.516;2023-03-25T04:49:49;5.30;;;1.50;;
24407;SDS011;12542;50.924;4.516;2023-03-25T04:52:15;14.15;;;2.00;;
24407;SDS011;12542;50.924;4.516;2023-03-25T04:54:41;9.07;;;1.65;;
24407;SDS011;12542;50.924;4.516;2023-03-25T04:57:08;11.10;;;1.98;;
24407;SDS011;12542;50.924;4.516;2023-03-25T04:59:35;8.05;;;1.67;;
24407;SDS011;12542;50.924;4.516;2023-03-25T05:02:01;8.57;;;1.42;;
24407;SDS011;12542;50.924;4.516;2023-03-25T05:04:31;11.75;;;1.90;;
24407;SDS011;12542;50.924;4.516;2023-03-25T05:06:58;9.98;;;1.65;;
24407;SDS011;12542;50.924;4.516;2023-03-25T05:09:23;8.55;;;1.50;;
24407;SDS011;12542;50.924;4.516;2023-03-25T05:11:50;9.88;;;1.42;;
24407;SDS011;12542;50.924;4.516;2023-03-25T05:14:18;8.77;;;1.40;;
24407;SDS011;12542;50.924;4.516;2023-03-25T05:16:45;11.98;;;1.20;;
24407;SDS011;12542;50.924;4.516;2023-03-25T05:19:12;6.28;;;1.35;;
24407;SDS011;12542;50.924;4.516;2023-03-25T05:21:39;9.02;;;1.80;;
24407;SDS011;12542;50.924;4.516;2023-03-25T05:24:06;6.68;;;1.50;;
24407;SDS011;12542;50.924;4.516;2023-03-25T05:26:34;9.40;;;1.70;;
24407;SDS011;12542;50.924;4.516;2023-03-25T05:29:01;10.18;;;1.48;;
24407;SDS011;12542;50.924;4.516;2023-03-25T05:31:28;6.05;;;1.25;;
24407;SDS011;12542;50.924;4.516;2023-03-25T05:33:54;9.57;;;1.40;;
24407;SDS011;12542;50.924;4.516;2023-03-25T05:36:20;11.25;;;1.75;;
24407;SDS011;12542;50.924;4.516;2023-03-25T05:38:49;6.75;;;1.33;;
24407;SDS011;12542;50.924;4.516;2023-03-25T05:41:22;8.30;;;1.75;;
24407;SDS011;12542;50.924;4.516;2023-03-25T05:43:56;8.02;;;1.98;;
24407;SDS011;12542;50.924;4.516;2023-03-25T05:46:26;11.23;;;1.50;;
24407;SDS011;12542;50.924;4.516;2023-03-25T05:48:55;13.70;;;2.35;;
24407;SDS011;12542;50.924;4.516;2023-03-25T05:51:21;10.55;;;1.77;;
24407;SDS011;12542;50.924;4.516;2023-03-25T05:53:48;10.77;;;1.90;;
24407;SDS011;12542;50.924;4.516;2023-03-25T05:56:15;11.80;;;1.70;;
24407;SDS011;12542;50.924;4.516;2023-03-25T05:58:43;11.02;;;1.40;;
24407;SDS011;12542;50.924;4.516;2023-03-25T06:01:09;14.80;;;1.48;;
24407;SDS011;12542;50.924;4.516;2023-03-25T06:03:38;14.27;;;2.20;;
24407;SDS011;12542;50.924;4.516;2023-03-25T06:06:04;16.27;;;2.53;;
24407;SDS011;12542;50.924;4.516;2023-03-25T06:08:41;13.82;;;2.08;;
24407;SDS011;12542;50.924;4.516;2023-03-25T06:11:09;10.77;;;1.52;;
24407;SDS011;12542;50.924;4.516;2023-03-25T06:13:38;6.50;;;1.40;;
24407;SDS011;12542;50.924;4.516;2023-03-25T06:16:05;9.75;;;2.45;;
24407;SDS011;12542;50.924;4.516;2023-03-25T06:18:37;13.32;;;3.00;;
24407;SDS011;12542;50.924;4.516;2023-03-25T06:21:03;16.38;;;2.38;;
24407;SDS011;12542;50.924;4.516;2023-03-25T06:23:30;15.27;;;2.00;;
24407;SDS011;12542;50.924;4.516;2023-03-25T06:25:59;11.05;;;1.50;;
24407;SDS011;12542;50.924;4.516;2023-03-25T06:28:26;7.00;;;1.33;;
24407;SDS011;12542;50.924;4.516;2023-03-25T06:30:51;22.05;;;3.50;;
24407;SDS011;12542;50.924;4.516;2023-03-25T06:33:17;13.38;;;1.98;;
24407;SDS011;12542;50.924;4.516;2023-03-25T06:35:45;7.30;;;1.17;;
24407;SDS011;12542;50.924;4.516;2023-03-25T06:38:13;15.65;;;1.83;;
24407;SDS011;12542;50.924;4.516;2023-03-25T06:40:39;10.23;;;1.85;;
24407;SDS011;12542;50.924;4.516;2023-03-25T06:43:05;11.02;;;1.27;;
24407;SDS011;12542;50.924;4.516;2023-03-25T06:45:31;5.93;;;1.38;;
24407;SDS011;12542;50.924;4.516;2023-03-25T06:47:58;9.88;;;1.92;;
24407;SDS011;12542;50.924;4.516;2023-03-25T06:50:24;12.45;;;1.95;;
24407;SDS011;12542;50.924;4.516;2023-03-25T06:52:50;11.27;;;2.03;;
24407;SDS011;12542;50.924;4.516;2023-03-25T06:55:16;9.18;;;1.70;;
24407;SDS011;12542;50.924;4.516;2023-03-25T06:57:42;12.90;;;2.22;;
24407;SDS011;12542;50.924;4.516;2023-03-25T07:00:09;12.75;;;1.85;;
24407;SDS011;12542;50.924;4.516;2023-03-25T07:02:38;12.60;;;1.80;;
24407;SDS011;12542;50.924;4.516;2023-03-25T07:05:04;10.02;;;1.45;;
24407;SDS011;12542;50.924;4.516;2023-03-25T07:07:31;14.25;;;1.90;;
24407;SDS011;12542;50.924;4.516;2023-03-25T07:09:57;9.90;;;1.60;;
24407;SDS011;12542;50.924;4.516;2023-03-25T07:12:22;11.48;;;1.77;;
24407;SDS011;12542;50.924;4.516;2023-03-25T07:14:52;7.50;;;1.40;;
24407;SDS011;12542;50.924;4.516;2023-03-25T07:17:19;11.63;;;1.42;;
24407;SDS011;12542;50.924;4.516;2023-03-25T07:19:45;17.10;;;1.55;;
24407;SDS011;12542;50.924;4.516;2023-03-25T07:22:11;12.77;;;2.22;;
24407;SDS011;12542;50.924;4.516;2023-03-25T07:24:36;11.70;;;1.80;;
24407;SDS011;12542;50.924;4.516;2023-03-25T07:27:02;7.35;;;1.83;;
24407;SDS011;12542;50.924;4.516;2023-03-25T07:29:28;12.52;;;2.10;;
24407;SDS011;12542;50.924;4.516;2023-03-25T07:31:54;9.93;;;1.70;;
24407;SDS011;12542;50.924;4.516;2023-03-25T07:34:20;10.38;;;1.98;;
24407;SDS011;12542;50.924;4.516;2023-03-25T07:36:46;17.55;;;2.00;;
24407;SDS011;12542;50.924;4.516;2023-03-25T07:39:11;19.08;;;2.28;;
24407;SDS011;12542;50.924;4.516;2023-03-25T07:41:37;13.18;;;2.42;;
24407;SDS011;12542;50.924;4.516;2023-03-25T07:44:03;15.68;;;2.22;;
24407;SDS011;12542;50.924;4.516;2023-03-25T07:46:29;18.70;;;2.97;;
24407;SDS011;12542;50.924;4.516;2023-03-25T07:48:55;18.75;;;2.63;;
24407;SDS011;12542;50.924;4.516;2023-03-25T07:51:20;14.85;;;3.20;;
24407;SDS011;12542;50.924;4.516;2023-03-25T07:53:46;16.60;;;2.50;;
24407;SDS011;12542;50.924;4.516;2023-03-25T07:56:12;17.95;;;3.35;;
24407;SDS011;12542;50.924;4.516;2023-03-25T07:58:39;12.82;;;2.85;;
24407;SDS011;12542;50.924;4.516;2023-03-25T08:01:06;12.93;;;2.38;;
24407;SDS011;12542;50.924;4.516;2023-03-25T08:03:32;15.43;;;2.35;;
24407;SDS011;12542;50.924;4.516;2023-03-25T08:05:59;8.25;;;1.88;;
24407;SDS011;12542;50.924;4.516;2023-03-25T08:08:26;11.32;;;2.08;;
24407;SDS011;12542;50.924;4.516;2023-03-25T08:10:55;9.25;;;2.00;;
24407;SDS011;12542;50.924;4.516;2023-03-25T08:13:21;12.35;;;2.22;;
24407;SDS011;12542;50.924;4.516;2023-03-25T08:15:47;13.30;;;2.60;;
24407;SDS011;12542;50.924;4.516;2023-03-25T08:18:13;16.88;;;1.67;;
24407;SDS011;12542;50.924;4.516;2023-03-25T08:20:39;11.18;;;2.17;;
24407;SDS011;12542;50.924;4.516;2023-03-25T08:23:05;16.23;;;2.60;;
24407;SDS011;12542;50.924;4.516;2023-03-25T08:25:38;17.45;;;2.30;;
24407;SDS011;12542;50.924;4.516;2023-03-25T08:28:05;14.07;;;2.28;;
24407;SDS011;12542;50.924;4.516;2023-03-25T08:30:34;18.05;;;2.38;;
24407;SDS011;12542;50.924;4.516;2023-03-25T08:33:07;16.00;;;2.25;;
24407;SDS011;12542;50.924;4.516;2023-03-25T08:35:34;12.63;;;2.08;;
24407;SDS011;12542;50.924;4.516;2023-03-25T08:38:02;17.13;;;2.20;;
24407;SDS011;12542;50.924;4.516;2023-03-25T08:40:32;19.35;;;2.75;;
24407;SDS011;12542;50.924;4.516;2023-03-25T08:42:59;10.90;;;2.33;;
24407;SDS011;12542;50.924;4.516;2023-03-25T08:45:27;14.93;;;2.50;;
24407;SDS011;12542;50.924;4.516;2023-03-25T08:47:53;14.18;;;2.33;;
24407;SDS011;12542;50.924;4.516;2023-03-25T08:50:18;14.43;;;2.53;;
24407;SDS011;12542;50.924;4.516;2023-03-25T08:52:45;14.30;;;2.47;;
24407;SDS011;12542;50.924;4.516;2023-03-25T08:55:11;20.63;;;2.72;;
24407;SDS011;12542;50.924;4.516;2023-03-25T08:57:40;16.13;;;2.67;;
24407;SDS011;12542;50.924;4.516;2023-03-25T09:00:06;16.45;;;2.65;;
24407;SDS011;12542;50.924;4.516;2023-03-25T09:02:43;12.40;;;2.70;;
24407;SDS011;12542;50.924;4.516;2023-03-25T09:05:09;18.25;;;2.85;;
24407;SDS011;12542;50.924;4.516;2023-03-25T09:07:40;17.08;;;3.28;;
24407;SDS011;12542;50.924;4.516;2023-03-25T09:10:06;13.52;;;2.40;;
24407;SDS011;12542;50.924;4.516;2023-03-25T09:12:32;14.32;;;3.22;;
24407;SDS011;12542;50.924;4.516;2023-03-25T09:14:58;17.73;;;2.47;;
24407;SDS011;12542;50.924;4.516;2023-03-25T09:17:24;18.77;;;2.53;;
24407;SDS011;12542;50.924;4.516;2023-03-25T09:19:49;10.63;;;2.17;;
24407;SDS011;12542;50.924;4.516;2023-03-25T09:22:15;15.80;;;3.47;;
24407;SDS011;12542;50.924;4.516;2023-03-25T09:24:41;15.80;;;2.38;;
24407;SDS011;12542;50.924;4.516;2023-03-25T09:27:07;15.07;;;2.40;;
24407;SDS011;12542;50.924;4.516;2023-03-25T09:29:33;15.05;;;2.88;;
24407;SDS011;12542;50.924;4.516;2023-03-25T09:31:59;12.32;;;2.28;;
24407;SDS011;12542;50.924;4.516;2023-03-25T09:34:25;18.30;;;3.10;;
24407;SDS011;12542;50.924;4.516;2023-03-25T09:36:52;17.67;;;3.45;;
24407;SDS011;12542;50.924;4.516;2023-03-25T09:39:19;10.20;;;2.25;;
24407;SDS011;12542;50.924;4.516;2023-03-25T09:42:03;19.75;;;3.50;;
24407;SDS011;12542;50.924;4.516;2023-03-25T09:47:20;13.35;;;2.58;;
24407;SDS011;12542;50.924;4.516;2023-03-25T09:49:49;28.83;;;3.58;;
24407;SDS011;12542;50.924;4.516;2023-03-25T09:52:26;16.58;;;2.60;;
24407;SDS011;12542;50.924;4.516;2023-03-25T09:55:01;18.50;;;3.25;;
24407;SDS011;12542;50.924;4.516;2023-03-25T09:57:31;21.67;;;3.17;;
24407;SDS011;12542;50.924;4.516;2023-03-25T10:00:01;16.67;;;2.83;;
24407;SDS011;12542;50.924;4.516;2023-03-25T10:10:50;16.20;;;2.88;;
24407;SDS011;12542;50.924;4.516;2023-03-25T10:16:32;18.67;;;2.50;;
24407;SDS011;12542;50.924;4.516;2023-03-25T10:25:23;21.48;;;3.03;;
24407;SDS011;12542;50.924;4.516;2023-03-25T10:27:52;15.77;;;2.65;;
24407;SDS011;12542;50.924;4.516;2023-03-25T10:30:21;20.02;;;3.22;;
24407;SDS011;12542;50.924;4.516;2023-03-25T10:32:51;25.35;;;2.75;;
24407;SDS011;12542;50.924;4.516;2023-03-25T10:35:27;16.52;;;2.83;;
24407;SDS011;12542;50.924;4.516;2023-03-25T10:37:59;16.17;;;3.65;;
24407;SDS011;12542;50.924;4.516;2023-03-25T10:40:38;18.38;;;2.80;;
24407;SDS011;12542;50.924;4.516;2023-03-25T10:45:42;17.35;;;2.75;;
24407;SDS011;12542;50.924;4.516;2023-03-25T10:50:39;14.73;;;3.15;;
24407;SDS011;12542;50.924;4.516;2023-03-25T10:53:09;22.35;;;3.13;;
24407;SDS011;12542;50.924;4.516;2023-03-25T10:55:47;22.08;;;2.78;;
24407;SDS011;12542;50.924;4.516;2023-03-25T10:58:17;13.70;;;2.63;;
24407;SDS011;12542;50.924;4.516;2023-03-25T11:00:43;17.25;;;2.88;;
24407;SDS011;12542;50.924;4.516;2023-03-25T11:03:13;20.67;;;2.95;;
24407;SDS011;12542;50.924;4.516;2023-03-25T11:05:49;14.18;;;2.65;;
24407;SDS011;12542;50.924;4.516;2023-03-25T11:08:16;16.20;;;2.42;;
24407;SDS011;12542;50.924;4.516;2023-03-25T11:10:49;15.30;;;2.25;;
24407;SDS011;12542;50.924;4.516;2023-03-25T11:13:27;12.27;;;1.80;;
24407;SDS011;12542;50.924;4.516;2023-03-25T11:16:00;16.23;;;2.70;;
24407;SDS011;12542;50.924;4.516;2023-03-25T11:18:29;20.35;;;2.83;;
24407;SDS011;12542;50.924;4.516;2023-03-25T11:21:04;12.90;;;2.33;;
24407;SDS011;12542;50.924;4.516;2023-03-25T11:23:34;19.00;;;3.03;;
24407;SDS011;12542;50.924;4.516;2023-03-25T11:26:05;13.98;;;2.35;;
24407;SDS011;12542;50.924;4.516;2023-03-25T11:36:51;12.38;;;1.73;;
24407;SDS011;12542;50.924;4.516;2023-03-25T11:41:47;16.90;;;2.30;;
24407;SDS011;12542;50.924;4.516;2023-03-25T11:44:30;15.95;;;2.22;;
24407;SDS011;12542;50.924;4.516;2023-03-25T11:46:59;13.57;;;2.60;;
24407;SDS011;12542;50.924;4.516;2023-03-25T11:49:34;14.50;;;2.55;;
24407;SDS011;12542;50.924;4.516;2023-03-25T11:52:24;16.33;;;1.88;;
24407;SDS011;12542;50.924;4.516;2023-03-25T11:54:51;9.73;;;1.52;;
24407;SDS011;12542;50.924;4.516;2023-03-25T11:57:25;16.92;;;2.30;;
24407;SDS011;12542;50.924;4.516;2023-03-25T12:03:00;10.00;;;1.90;;
24407;SDS011;12542;50.924;4.516;2023-03-25T12:05:39;9.82;;;2.67;;
24407;SDS011;12542;50.924;4.516;2023-03-25T12:24:08;11.30;;;2.40;;
24407;SDS011;12542;50.924;4.516;2023-03-25T12:40:38;14.63;;;1.75;;
24407;SDS011;12542;50.924;4.516;2023-03-25T12:51:18;9.70;;;1.83;;
24407;SDS011;12542;50.924;4.516;2023-03-25T12:54:27;10.50;;;2.28;;
24407;SDS011;12542;50.924;4.516;2023-03-25T13:00:21;12.65;;;2.38;;
24407;SDS011;12542;50.924;4.516;2023-03-25T13:11:02;12.77;;;2.25;;
24407;SDS011;12542;50.924;4.516;2023-03-25T13:13:33;15.27;;;2.33;;
24407;SDS011;12542;50.924;4.516;2023-03-25T13:16:02;14.90;;;1.90;;
24407;SDS011;12542;50.924;4.516;2023-03-25T13:18:54;11.93;;;1.90;;
24407;SDS011;12542;50.924;4.516;2023-03-25T13:21:26;17.67;;;2.60;;
24407;SDS011;12542;50.924;4.516;2023-03-25T13:24:40;15.20;;;2.10;;
24407;SDS011;12542;50.924;4.516;2023-03-25T13:27:00;11.82;;;2.65;;
24407;SDS011;12542;50.924;4.516;2023-03-25T13:29:29;14.27;;;2.75;;
24407;SDS011;12542;50.924;4.516;2023-03-25T13:32:04;11.35;;;2.42;;
24407;SDS011;12542;50.924;4.516;2023-03-25T13:34:48;14.02;;;1.95;;
24407;SDS011;12542;50.924;4.516;2023-03-25T13:37:31;15.95;;;2.30;;
24407;SDS011;12542;50.924;4.516;2023-03-25T13:40:22;13.00;;;1.67;;
24407;SDS011;12542;50.924;4.516;2023-03-25T13:45:57;16.88;;;2.22;;
24407;SDS011;12542;50.924;4.516;2023-03-25T13:51:16;19.83;;;2.65;;
24407;SDS011;12542;50.924;4.516;2023-03-25T13:54:03;10.38;;;2.55;;
24407;SDS011;12542;50.924;4.516;2023-03-25T13:59:51;15.43;;;2.05;;
24407;SDS011;12542;50.924;4.516;2023-03-25T14:02:50;12.10;;;2.05;;
24407;SDS011;12542;50.924;4.516;2023-03-25T14:16:37;17.13;;;2.63;;
24407;SDS011;12542;50.924;4.516;2023-03-25T14:19:10;13.20;;;1.85;;
24407;SDS011;12542;50.924;4.516;2023-03-25T14:21:47;10.52;;;2.03;;
24407;SDS011;12542;50.924;4.516;2023-03-25T14:24:28;10.48;;;2.33;;
24407;SDS011;12542;50.924;4.516;2023-03-25T14:27:01;12.57;;;2.20;;
24407;SDS011;12542;50.924;4.516;2023-03-25T14:29:46;8.27;;;1.80;;
24407;SDS011;12542;50.924;4.516;2023-03-25T14:34:49;19.70;;;2.35;;
24407;SDS011;12542;50.924;4.516;2023-03-25T14:37:24;12.50;;;2.00;;
24407;SDS011;12542;50.924;4.516;2023-03-25T14:39:54;15.27;;;2.63;;
24407;SDS011;12542;50.924;4.516;2023-03-25T14:42:24;11.18;;;2.13;;
24407;SDS011;12542;50.924;4.516;2023-03-25T14:44:53;12.75;;;1.67;;
24407;SDS011;12542;50.924;4.516;2023-03-25T14:47:57;11.48;;;2.05;;
24407;SDS011;12542;50.924;4.516;2023-03-25T14:52:50;12.35;;;2.30;;
24407;SDS011;12542;50.924;4.516;2023-03-25T14:57:51;16.20;;;1.83;;
24407;SDS011;12542;50.924;4.516;2023-03-25T15:00:43;11.45;;;1.83;;
24407;SDS011;12542;50.924;4.516;2023-03-25T15:03:17;13.60;;;2.25;;
24407;SDS011;12542;50.924;4.516;2023-03-25T15:05:53;12.60;;;2.10;;
24407;SDS011;12542;50.924;4.516;2023-03-25T15:13:33;11.85;;;2.47;;
24407;SDS011;12542;50.924;4.516;2023-03-25T15:21:10;20.27;;;2.20;;
24407;SDS011;12542;50.924;4.516;2023-03-25T15:23:46;11.93;;;1.77;;
24407;SDS011;12542;50.924;4.516;2023-03-25T15:26:25;9.75;;;1.77;;
24407;SDS011;12542;50.924;4.516;2023-03-25T15:40:10;11.38;;;1.90;;
24407;SDS011;12542;50.924;4.516;2023-03-25T15:46:22;15.35;;;2.03;;
24407;SDS011;12542;50.924;4.516;2023-03-25T15:52:26;14.00;;;2.38;;
24407;SDS011;12542;50.924;4.516;2023-03-25T15:55:19;14.65;;;2.15;;
24407;SDS011;12542;50.924;4.516;2023-03-25T15:58:01;10.32;;;1.83;;
24407;SDS011;12542;50.924;4.516;2023-03-25T16:05:47;14.98;;;2.00;;
24407;SDS011;12542;50.924;4.516;2023-03-25T16:08:17;15.90;;;2.20;;
24407;SDS011;12542;50.924;4.516;2023-03-25T16:10:52;13.15;;;2.15;;
24407;SDS011;12542;50.924;4.516;2023-03-25T16:13:18;10.80;;;2.25;;
24407;SDS011;12542;50.924;4.516;2023-03-25T16:15:49;16.80;;;2.20;;
24407;SDS011;12542;50.924;4.516;2023-03-25T16:18:22;12.70;;;2.35;;
24407;SDS011;12542;50.924;4.516;2023-03-25T16:20:56;16.45;;;2.28;;
24407;SDS011;12542;50.924;4.516;2023-03-25T16:23:27;16.88;;;1.98;;
24407;SDS011;12542;50.924;4.516;2023-03-25T16:25:54;19.80;;;2.88;;
24407;SDS011;12542;50.924;4.516;2023-03-25T16:28:27;14.90;;;2.30;;
24407;SDS011;12542;50.924;4.516;2023-03-25T16:31:01;11.10;;;1.80;;
24407;SDS011;12542;50.924;4.516;2023-03-25T16:33:28;12.65;;;2.33;;
24407;SDS011;12542;50.924;4.516;2023-03-25T16:36:00;22.13;;;2.78;;
24407;SDS011;12542;50.924;4.516;2023-03-25T16:38:29;12.10;;;2.28;;
24407;SDS011;12542;50.924;4.516;2023-03-25T16:40:59;15.45;;;3.33;;
24407;SDS011;12542;50.924;4.516;2023-03-25T16:43:27;17.77;;;2.65;;
24407;SDS011;12542;50.924;4.516;2023-03-25T16:45:55;18.80;;;2.35;;
24407;SDS011;12542;50.924;4.516;2023-03-25T16:53:45;18.90;;;3.00;;
24407;SDS011;12542;50.924;4.516;2023-03-25T16:58:52;20.15;;;3.45;;
24407;SDS011;12542;50.924;4.516;2023-03-25T17:01:31;14.73;;;2.42;;
24407;SDS011;12542;50.924;4.516;2023-03-25T17:04:16;14.90;;;2.83;;
24407;SDS011;12542;50.924;4.516;2023-03-25T17:06:49;22.77;;;3.15;;
24407;SDS011;12542;50.924;4.516;2023-03-25T17:09:27;22.23;;;2.90;;
24407;SDS011;12542;50.924;4.516;2023-03-25T17:11:59;19.98;;;3.67;;
24407;SDS011;12542;50.924;4.516;2023-03-25T17:14:30;15.18;;;2.90;;
24407;SDS011;12542;50.924;4.516;2023-03-25T17:17:02;14.63;;;2.22;;
24407;SDS011;12542;50.924;4.516;2023-03-25T17:19:33;18.42;;;3.40;;
24407;SDS011;12542;50.924;4.516;2023-03-25T17:22:12;20.85;;;3.13;;
24407;SDS011;12542;50.924;4.516;2023-03-25T17:25:00;19.35;;;2.70;;
24407;SDS011;12542;50.924;4.516;2023-03-25T17:27:54;18.92;;;3.10;;
24407;SDS011;12542;50.924;4.516;2023-03-25T17:30:42;16.95;;;2.88;;
24407;SDS011;12542;50.924;4.516;2023-03-25T17:33:10;14.00;;;2.58;;
24407;SDS011;12542;50.924;4.516;2023-03-25T17:35:43;18.15;;;3.00;;
24407;SDS011;12542;50.924;4.516;2023-03-25T17:38:28;18.33;;;3.63;;
24407;SDS011;12542;50.924;4.516;2023-03-25T17:41:09;21.05;;;3.28;;
24407;SDS011;12542;50.924;4.516;2023-03-25T17:43:40;17.98;;;3.10;;
24407;SDS011;12542;50.924;4.516;2023-03-25T17:46:08;20.95;;;3.05;;
24407;SDS011;12542;50.924;4.516;2023-03-25T17:48:36;24.65;;;3.58;;
24407;SDS011;12542;50.924;4.516;2023-03-25T17:51:02;12.90;;;3.33;;
24407;SDS011;12542;50.924;4.516;2023-03-25T17:53:28;14.63;;;2.92;;
24407;SDS011;12542;50.924;4.516;2023-03-25T17:55:54;17.80;;;4.10;;
24407;SDS011;12542;50.924;4.516;2023-03-25T17:58:23;24.40;;;3.30;;
24407;SDS011;12542;50.924;4.516;2023-03-25T18:00:49;18.75;;;2.85;;
24407;SDS011;12542;50.924;4.516;2023-03-25T18:03:20;24.42;;;3.22;;
24407;SDS011;12542;50.924;4.516;2023-03-25T18:05:48;18.80;;;3.45;;
24407;SDS011;12542;50.924;4.516;2023-03-25T18:08:18;20.08;;;2.88;;
24407;SDS011;12542;50.924;4.516;2023-03-25T18:10:45;18.17;;;3.33;;
24407;SDS011;12542;50.924;4.516;2023-03-25T18:13:16;24.75;;;4.25;;
24407;SDS011;12542;50.924;4.516;2023-03-25T18:15:48;22.52;;;3.22;;
24407;SDS011;12542;50.924;4.516;2023-03-25T18:18:15;19.65;;;3.83;;
24407;SDS011;12542;50.924;4.516;2023-03-25T18:20:43;20.55;;;3.17;;
24407;SDS011;12542;50.924;4.516;2023-03-25T18:23:10;20.13;;;3.22;;
24407;SDS011;12542;50.924;4.516;2023-03-25T18:25:37;17.25;;;3.35;;
24407;SDS011;12542;50.924;4.516;2023-03-25T18:28:03;20.30;;;3.85;;
24407;SDS011;12542;50.924;4.516;2023-03-25T18:30:36;20.88;;;3.17;;
24407;SDS011;12542;50.924;4.516;2023-03-25T18:33:04;21.33;;;3.17;;
24407;SDS011;12542;50.924;4.516;2023-03-25T18:35:30;22.98;;;3.45;;